sensor_id;sensor_type;location;lat;lon;timestamp;pressure;altitude;pressure_sealevel;temperature;humidity
66547;BME280;53400;50.364;14.874;2022-08-20T00:00:30;98181.03;;;20.08;90.61
66547;BME280;53400;50.364;14.874;2022-08-20T00:03:06;98194.16;;;20.06;90.62
66547;BME280;53400;50.364;14.874;2022-08-20T00:05:35;98179.72;;;20.05;91.03
66547;BME280;53400;50.364;14.874;2022-08-20T00:08:02;98183.25;;;20.14;90.10
66547;BME280;53400;50.364;14.874;2022-08-20T00:10:34;98177.84;;;20.23;89.38
66547;BME280;53400;50.364;14.874;2022-08-20T00:13:01;98180.53;;;20.14;90.12
66547;BME280;53400;50.364;14.874;2022-08-20T00:15:30;98175.09;;;19.88;92.06
66547;BME280;53400;50.364;14.874;2022-08-20T00:17:57;98183.91;;;20.03;91.63
66547;BME280;53400;50.364;14.874;2022-08-20T00:20:25;98193.84;;;20.16;90.06
66547;BME280;53400;50.364;14.874;2022-08-20T00:22:51;98192.72;;;20.26;89.54
66547;BME280;53400;50.364;14.874;2022-08-20T00:25:17;98189.50;;;20.32;88.80
66547;BME280;53400;50.364;14.874;2022-08-20T00:27:45;98188.88;;;20.35;88.63
66547;BME280;53400;50.364;14.874;2022-08-20T00:30:13;98190.50;;;20.36;88.54
66547;BME280;53400;50.364;14.874;2022-08-20T00:32:43;98185.06;;;20.45;88.58
66547;BME280;53400;50.364;14.874;2022-08-20T00:35:10;98190.66;;;20.40;88.37
66547;BME280;53400;50.364;14.874;2022-08-20T00:37:36;98187.44;;;20.38;89.00
66547;BME280;53400;50.364;14.874;2022-08-20T00:40:03;98182.19;;;20.33;88.90
66547;BME280;53400;50.364;14.874;2022-08-20T00:42:29;98189.22;;;20.34;89.27
66547;BME280;53400;50.364;14.874;2022-08-20T00:44:56;98189.06;;;20.30;89.44
66547;BME280;53400;50.364;14.874;2022-08-20T00:47:22;98191.28;;;20.20;89.97
66547;BME280;53400;50.364;14.874;2022-08-20T00:49:48;98190.34;;;20.24;90.01
66547;BME280;53400;50.364;14.874;2022-08-20T00:52:17;98184.41;;;20.31;89.35
66547;BME280;53400;50.364;14.874;2022-08-20T00:54:46;98182.00;;;20.21;90.22
66547;BME280;53400;50.364;14.874;2022-08-20T00:57:21;98182.81;;;20.12;91.04
66547;BME280;53400;50.364;14.874;2022-08-20T00:59:48;98175.13;;;20.23;90.17
66547;BME280;53400;50.364;14.874;2022-08-20T01:02:18;98183.25;;;20.14;90.94
66547;BME280;53400;50.364;14.874;2022-08-20T01:04:46;98173.69;;;20.17;90.83
66547;BME280;53400;50.364;14.874;2022-08-20T01:07:16;98172.25;;;20.28;89.69
66547;BME280;53400;50.364;14.874;2022-08-20T01:09:45;98171.28;;;20.15;90.48
66547;BME280;53400;50.364;14.874;2022-08-20T01:12:13;98172.56;;;20.09;91.41
66547;BME280;53400;50.364;14.874;2022-08-20T01:14:40;98169.38;;;20.25;90.53
66547;BME280;53400;50.364;14.874;2022-08-20T01:17:09;98163.31;;;20.28;90.17
66547;BME280;53400;50.364;14.874;2022-08-20T01:19:44;98165.53;;;20.26;89.97
66547;BME280;53400;50.364;14.874;2022-08-20T01:22:13;98160.44;;;20.24;90.36
66547;BME280;53400;50.364;14.874;2022-08-20T01:25:07;98171.75;;;20.35;88.99
66547;BME280;53400;50.364;14.874;2022-08-20T01:27:37;98173.03;;;20.29;89.54
66547;BME280;53400;50.364;14.874;2022-08-20T01:30:05;98177.38;;;20.30;89.36
66547;BME280;53400;50.364;14.874;2022-08-20T01:32:31;98171.75;;;20.26;89.67
66547;BME280;53400;50.364;14.874;2022-08-20T01:34:57;98177.84;;;20.40;89.03
66547;BME280;53400;50.364;14.874;2022-08-20T01:37:23;98174.81;;;20.33;89.53
66547;BME280;53400;50.364;14.874;2022-08-20T01:39:49;98166.97;;;20.40;88.34
66547;BME280;53400;50.364;14.874;2022-08-20T01:42:19;98170.19;;;20.51;88.07
66547;BME280;53400;50.364;14.874;2022-08-20T01:44:50;98171.16;;;20.55;87.46
66547;BME280;53400;50.364;14.874;2022-08-20T01:47:19;98167.66;;;20.55;87.81
66547;BME280;53400;50.364;14.874;2022-08-20T01:49:49;98173.53;;;20.31;89.28
66547;BME280;53400;50.364;14.874;2022-08-20T01:52:21;98174.03;;;20.33;89.29
66547;BME280;53400;50.364;14.874;2022-08-20T01:54:49;98174.00;;;20.42;88.43
66547;BME280;53400;50.364;14.874;2022-08-20T01:57:16;98177.84;;;20.49;87.08
66547;BME280;53400;50.364;14.874;2022-08-20T01:59:44;98184.13;;;20.67;86.21
66547;BME280;53400;50.364;14.874;2022-08-20T02:02:11;98181.41;;;20.67;85.65
66547;BME280;53400;50.364;14.874;2022-08-20T02:04:38;98176.09;;;20.36;87.15
66547;BME280;53400;50.364;14.874;2022-08-20T02:07:07;98163.59;;;20.26;87.71
66547;BME280;53400;50.364;14.874;2022-08-20T02:09:37;98172.09;;;20.68;85.68
66547;BME280;53400;50.364;14.874;2022-08-20T02:12:05;98167.28;;;20.74;85.23
66547;BME280;53400;50.364;14.874;2022-08-20T02:14:31;98174.03;;;20.68;85.08
66547;BME280;53400;50.364;14.874;2022-08-20T02:16:58;98168.28;;;20.60;85.82
66547;BME280;53400;50.364;14.874;2022-08-20T02:19:28;98170.19;;;20.51;85.98
66547;BME280;53400;50.364;14.874;2022-08-20T02:21:59;98172.06;;;20.51;86.21
66547;BME280;53400;50.364;14.874;2022-08-20T02:24:27;98167.94;;;20.27;88.15
66547;BME280;53400;50.364;14.874;2022-08-20T02:26:55;98168.09;;;20.13;89.02
66547;BME280;53400;50.364;14.874;2022-08-20T02:29:20;98172.50;;;19.83;91.56
66547;BME280;53400;50.364;14.874;2022-08-20T02:31:46;98162.75;;;19.82;92.30
66547;BME280;53400;50.364;14.874;2022-08-20T02:34:13;98171.53;;;19.70;92.88
66547;BME280;53400;50.364;14.874;2022-08-20T02:36:41;98168.53;;;19.89;91.49
66547;BME280;53400;50.364;14.874;2022-08-20T02:39:10;98168.88;;;20.23;89.52
66547;BME280;53400;50.364;14.874;2022-08-20T02:41:37;98167.59;;;20.29;89.02
66547;BME280;53400;50.364;14.874;2022-08-20T02:44:04;98164.09;;;20.20;89.37
66547;BME280;53400;50.364;14.874;2022-08-20T02:46:31;98161.34;;;20.11;90.59
66547;BME280;53400;50.364;14.874;2022-08-20T02:48:57;98163.13;;;20.15;90.50
66547;BME280;53400;50.364;14.874;2022-08-20T02:51:24;98162.50;;;20.19;89.82
66547;BME280;53400;50.364;14.874;2022-08-20T02:53:51;98162.16;;;20.20;89.02
66547;BME280;53400;50.364;14.874;2022-08-20T02:56:18;98165.19;;;20.45;88.60
66547;BME280;53400;50.364;14.874;2022-08-20T02:58:44;98158.97;;;20.35;88.84
66547;BME280;53400;50.364;14.874;2022-08-20T03:01:12;98165.53;;;20.43;88.65
66547;BME280;53400;50.364;14.874;2022-08-20T03:03:38;98175.94;;;20.50;88.16
66547;BME280;53400;50.364;14.874;2022-08-20T03:06:06;98174.34;;;20.49;87.95
66547;BME280;53400;50.364;14.874;2022-08-20T03:08:33;98173.22;;;20.41;89.08
66547;BME280;53400;50.364;14.874;2022-08-20T03:11:00;98171.59;;;20.23;89.86
66547;BME280;53400;50.364;14.874;2022-08-20T03:13:26;98164.91;;;20.46;89.04
66547;BME280;53400;50.364;14.874;2022-08-20T03:15:55;98161.84;;;20.74;86.69
66547;BME280;53400;50.364;14.874;2022-08-20T03:18:23;98163.16;;;20.59;87.33
66547;BME280;53400;50.364;14.874;2022-08-20T03:20:50;98163.28;;;20.80;86.88
66547;BME280;53400;50.364;14.874;2022-08-20T03:23:17;98157.88;;;20.54;88.29
66547;BME280;53400;50.364;14.874;2022-08-20T03:25:44;98157.38;;;20.34;89.51
66547;BME280;53400;50.364;14.874;2022-08-20T03:28:12;98153.06;;;20.42;88.98
66547;BME280;53400;50.364;14.874;2022-08-20T03:30:40;98152.25;;;20.42;89.02
66547;BME280;53400;50.364;14.874;2022-08-20T03:33:06;98149.72;;;20.36;89.37
66547;BME280;53400;50.364;14.874;2022-08-20T03:35:34;98145.72;;;20.43;89.27
66547;BME280;53400;50.364;14.874;2022-08-20T03:38:05;98139.59;;;20.63;87.83
66547;BME280;53400;50.364;14.874;2022-08-20T03:40:32;98147.63;;;20.42;89.50
66547;BME280;53400;50.364;14.874;2022-08-20T03:42:58;98150.97;;;20.48;88.96
66547;BME280;53400;50.364;14.874;2022-08-20T03:45:27;98146.81;;;20.50;89.17
66547;BME280;53400;50.364;14.874;2022-08-20T03:47:54;98149.06;;;20.66;88.48
66547;BME280;53400;50.364;14.874;2022-08-20T03:50:23;98147.00;;;20.45;89.69
66547;BME280;53400;50.364;14.874;2022-08-20T03:52:49;98150.31;;;20.51;89.14
66547;BME280;53400;50.364;14.874;2022-08-20T03:55:15;98151.63;;;20.53;88.74
66547;BME280;53400;50.364;14.874;2022-08-20T03:57:43;98150.19;;;20.56;88.45
66547;BME280;53400;50.364;14.874;2022-08-20T04:00:11;98131.00;;;20.52;89.12
66547;BME280;53400;50.364;14.874;2022-08-20T04:02:39;98141.25;;;20.55;89.19
66547;BME280;53400;50.364;14.874;2022-08-20T04:05:06;98145.22;;;20.23;91.13
66547;BME280;53400;50.364;14.874;2022-08-20T04:07:32;98142.97;;;20.25;90.54
66547;BME280;53400;50.364;14.874;2022-08-20T04:09:58;98147.00;;;20.36;90.38
66547;BME280;53400;50.364;14.874;2022-08-20T04:12:24;98144.41;;;20.31;90.63
66547;BME280;53400;50.364;14.874;2022-08-20T04:14:51;98154.19;;;20.15;90.99
66547;BME280;53400;50.364;14.874;2022-08-20T04:17:18;98158.66;;;20.20;91.85
66547;BME280;53400;50.364;14.874;2022-08-20T04:19:46;98166.66;;;20.25;91.66
66547;BME280;53400;50.364;14.874;2022-08-20T04:22:12;98169.34;;;20.07;93.24
66547;BME280;53400;50.364;14.874;2022-08-20T04:24:38;98178.31;;;20.16;92.73
66547;BME280;53400;50.364;14.874;2022-08-20T04:27:05;98177.53;;;20.16;93.05
66547;BME280;53400;50.364;14.874;2022-08-20T04:29:33;98174.94;;;20.11;93.01
66547;BME280;53400;50.364;14.874;2022-08-20T04:32:00;98183.09;;;20.11;92.87
66547;BME280;53400;50.364;14.874;2022-08-20T04:34:26;98174.47;;;20.17;92.98
66547;BME280;53400;50.364;14.874;2022-08-20T04:36:55;98180.38;;;20.11;93.28
66547;BME280;53400;50.364;14.874;2022-08-20T04:39:22;98185.19;;;20.14;93.23
66547;BME280;53400;50.364;14.874;2022-08-20T04:41:48;98179.59;;;20.10;93.11
66547;BME280;53400;50.364;14.874;2022-08-20T04:44:14;98192.06;;;20.03;94.06
66547;BME280;53400;50.364;14.874;2022-08-20T04:46:40;98191.09;;;20.07;93.84
66547;BME280;53400;50.364;14.874;2022-08-20T04:49:06;98191.88;;;19.90;95.47
66547;BME280;53400;50.364;14.874;2022-08-20T04:51:32;98192.53;;;20.05;94.46
66547;BME280;53400;50.364;14.874;2022-08-20T04:54:00;98196.03;;;20.05;93.97
66547;BME280;53400;50.364;14.874;2022-08-20T04:56:29;98202.31;;;20.06;94.19
66547;BME280;53400;50.364;14.874;2022-08-20T04:58:58;98213.00;;;20.11;93.60
66547;BME280;53400;50.364;14.874;2022-08-20T05:01:24;98195.25;;;20.13;93.59
66547;BME280;53400;50.364;14.874;2022-08-20T05:03:51;98200.06;;;20.16;92.76
66547;BME280;53400;50.364;14.874;2022-08-20T05:06:22;98199.28;;;20.16;93.52
66547;BME280;53400;50.364;14.874;2022-08-20T05:08:50;98207.75;;;20.32;92.31
66547;BME280;53400;50.364;14.874;2022-08-20T05:11:17;98202.94;;;20.20;92.59
66547;BME280;53400;50.364;14.874;2022-08-20T05:13:46;98205.81;;;20.06;93.74
66547;BME280;53400;50.364;14.874;2022-08-20T05:16:12;98204.72;;;20.25;93.05
66547;BME280;53400;50.364;14.874;2022-08-20T05:18:39;98206.81;;;20.28;92.72
66547;BME280;53400;50.364;14.874;2022-08-20T05:21:05;98200.88;;;20.17;93.67
66547;BME280;53400;50.364;14.874;2022-08-20T05:23:32;98207.91;;;20.35;92.40
66547;BME280;53400;50.364;14.874;2022-08-20T05:25:58;98201.84;;;20.30;92.93
66547;BME280;53400;50.364;14.874;2022-08-20T05:28:27;98207.59;;;20.28;92.27
66547;BME280;53400;50.364;14.874;2022-08-20T05:30:58;98203.59;;;20.34;92.13
66547;BME280;53400;50.364;14.874;2022-08-20T05:33:24;98207.47;;;20.42;91.56
66547;BME280;53400;50.364;14.874;2022-08-20T05:35:51;98209.19;;;20.29;92.55
66547;BME280;53400;50.364;14.874;2022-08-20T05:38:19;98215.56;;;20.07;94.08
66547;BME280;53400;50.364;14.874;2022-08-20T05:40:46;98207.91;;;20.27;92.93
66547;BME280;53400;50.364;14.874;2022-08-20T05:43:13;98213.41;;;20.53;91.44
66547;BME280;53400;50.364;14.874;2022-08-20T05:45:41;98210.19;;;20.42;91.61
66547;BME280;53400;50.364;14.874;2022-08-20T05:48:09;98215.81;;;20.54;90.90
66547;BME280;53400;50.364;14.874;2022-08-20T05:50:36;98218.50;;;20.46;91.50
66547;BME280;53400;50.364;14.874;2022-08-20T05:53:02;98214.50;;;20.43;91.31
66547;BME280;53400;50.364;14.874;2022-08-20T05:55:28;98208.88;;;20.31;92.81
66547;BME280;53400;50.364;14.874;2022-08-20T05:57:56;98216.72;;;20.41;92.34
66547;BME280;53400;50.364;14.874;2022-08-20T06:00:22;98215.78;;;20.37;92.71
66547;BME280;53400;50.364;14.874;2022-08-20T06:02:49;98216.56;;;20.37;92.71
66547;BME280;53400;50.364;14.874;2022-08-20T06:05:33;98217.06;;;20.39;92.68
66547;BME280;53400;50.364;14.874;2022-08-20T06:07:59;98220.41;;;20.45;92.06
66547;BME280;53400;50.364;14.874;2022-08-20T06:10:25;98226.28;;;20.04;94.54
66547;BME280;53400;50.364;14.874;2022-08-20T06:12:51;98222.31;;;20.27;92.65
66547;BME280;53400;50.364;14.874;2022-08-20T06:15:18;98227.13;;;20.39;91.88
66547;BME280;53400;50.364;14.874;2022-08-20T06:17:44;98224.09;;;20.49;91.24
66547;BME280;53400;50.364;14.874;2022-08-20T06:20:11;98232.09;;;20.63;90.17
66547;BME280;53400;50.364;14.874;2022-08-20T06:22:37;98231.81;;;20.65;89.58
66547;BME280;53400;50.364;14.874;2022-08-20T06:25:05;98226.16;;;20.44;91.56
66547;BME280;53400;50.364;14.874;2022-08-20T06:27:31;98228.72;;;20.31;92.19
66547;BME280;53400;50.364;14.874;2022-08-20T06:29:57;98230.97;;;20.47;90.71
66547;BME280;53400;50.364;14.874;2022-08-20T06:32:23;98231.16;;;20.59;90.14
66547;BME280;53400;50.364;14.874;2022-08-20T06:34:51;98232.94;;;20.55;90.02
66547;BME280;53400;50.364;14.874;2022-08-20T06:37:20;98227.94;;;20.48;90.33
66547;BME280;53400;50.364;14.874;2022-08-20T06:39:48;98235.13;;;20.44;91.23
66547;BME280;53400;50.364;14.874;2022-08-20T06:42:14;98236.31;;;20.60;90.20
66547;BME280;53400;50.364;14.874;2022-08-20T06:44:40;98244.91;;;20.62;90.12
66547;BME280;53400;50.364;14.874;2022-08-20T06:47:06;98241.25;;;20.76;89.34
66547;BME280;53400;50.364;14.874;2022-08-20T06:49:34;98242.03;;;20.85;88.69
66547;BME280;53400;50.364;14.874;2022-08-20T06:52:00;98247.16;;;20.87;89.08
66547;BME280;53400;50.364;14.874;2022-08-20T06:54:27;98262.06;;;20.80;89.73
66547;BME280;53400;50.364;14.874;2022-08-20T06:56:53;98255.16;;;20.66;90.71
66547;BME280;53400;50.364;14.874;2022-08-20T06:59:19;98260.75;;;20.95;89.06
66547;BME280;53400;50.364;14.874;2022-08-20T07:01:45;98259.47;;;21.01;88.58
66547;BME280;53400;50.364;14.874;2022-08-20T07:04:13;98261.91;;;20.77;89.97
66547;BME280;53400;50.364;14.874;2022-08-20T07:06:40;98262.19;;;20.84;89.83
66547;BME280;53400;50.364;14.874;2022-08-20T07:09:06;98260.31;;;20.76;89.79
66547;BME280;53400;50.364;14.874;2022-08-20T07:11:34;98262.38;;;20.61;91.14
66547;BME280;53400;50.364;14.874;2022-08-20T07:14:00;98261.38;;;20.49;92.00
66547;BME280;53400;50.364;14.874;2022-08-20T07:16:29;98267.16;;;20.56;92.08
66547;BME280;53400;50.364;14.874;2022-08-20T07:18:55;98274.19;;;20.57;91.77
66547;BME280;53400;50.364;14.874;2022-08-20T07:21:22;98272.59;;;20.56;91.61
66547;BME280;53400;50.364;14.874;2022-08-20T07:23:48;98278.53;;;20.75;90.46
66547;BME280;53400;50.364;14.874;2022-08-20T07:26:14;98274.38;;;20.60;90.58
66547;BME280;53400;50.364;14.874;2022-08-20T07:28:42;98287.78;;;20.48;92.03
66547;BME280;53400;50.364;14.874;2022-08-20T07:31:07;98273.69;;;20.46;92.10
66547;BME280;53400;50.364;14.874;2022-08-20T07:33:52;98277.56;;;20.62;90.59
66547;BME280;53400;50.364;14.874;2022-08-20T07:36:18;98279.97;;;20.64;90.09
66547;BME280;53400;50.364;14.874;2022-08-20T07:38:44;98279.63;;;20.57;90.55
66547;BME280;53400;50.364;14.874;2022-08-20T07:41:15;98278.53;;;20.58;90.37
66547;BME280;53400;50.364;14.874;2022-08-20T07:43:43;98269.25;;;20.68;89.82
66547;BME280;53400;50.364;14.874;2022-08-20T07:46:12;98275.00;;;20.66;89.64
66547;BME280;53400;50.364;14.874;2022-08-20T07:48:41;98283.00;;;20.54;90.68
66547;BME280;53400;50.364;14.874;2022-08-20T07:51:11;98286.69;;;20.58;90.01
66547;BME280;53400;50.364;14.874;2022-08-20T07:53:39;98280.63;;;20.70;89.20
66547;BME280;53400;50.364;14.874;2022-08-20T07:56:07;98287.00;;;20.65;88.94
66547;BME280;53400;50.364;14.874;2022-08-20T07:58:34;98279.19;;;20.55;88.94
66547;BME280;53400;50.364;14.874;2022-08-20T08:01:03;98281.22;;;20.49;89.29
66547;BME280;53400;50.364;14.874;2022-08-20T08:03:30;98287.97;;;20.52;89.73
66547;BME280;53400;50.364;14.874;2022-08-20T08:05:56;98287.16;;;20.51;89.71
66547;BME280;53400;50.364;14.874;2022-08-20T08:08:24;98285.72;;;20.54;89.40
66547;BME280;53400;50.364;14.874;2022-08-20T08:10:55;98281.72;;;20.60;88.26
66547;BME280;53400;50.364;14.874;2022-08-20T08:13:24;98275.00;;;20.66;87.40
66547;BME280;53400;50.364;14.874;2022-08-20T08:15:54;98281.69;;;20.43;88.82
66547;BME280;53400;50.364;14.874;2022-08-20T08:18:28;98277.16;;;20.21;89.86
66547;BME280;53400;50.364;14.874;2022-08-20T08:20:55;98277.34;;;20.24;89.10
66547;BME280;53400;50.364;14.874;2022-08-20T08:23:22;98279.25;;;20.32;88.88
66547;BME280;53400;50.364;14.874;2022-08-20T08:25:49;98289.91;;;20.11;90.41
66547;BME280;53400;50.364;14.874;2022-08-20T08:28:16;98292.38;;;20.30;89.04
66547;BME280;53400;50.364;14.874;2022-08-20T08:30:44;98289.00;;;20.25;89.00
66547;BME280;53400;50.364;14.874;2022-08-20T08:33:17;98297.66;;;20.35;88.72
66547;BME280;53400;50.364;14.874;2022-08-20T08:35:54;98304.09;;;20.48;87.43
66547;BME280;53400;50.364;14.874;2022-08-20T08:38:21;98301.53;;;20.43;87.83
66547;BME280;53400;50.364;14.874;2022-08-20T08:40:48;98306.31;;;20.37;88.11
66547;BME280;53400;50.364;14.874;2022-08-20T08:43:16;98295.59;;;20.41;87.19
66547;BME280;53400;50.364;14.874;2022-08-20T08:45:46;98308.56;;;20.44;87.12
66547;BME280;53400;50.364;14.874;2022-08-20T08:48:18;98307.03;;;20.52;86.32
66547;BME280;53400;50.364;14.874;2022-08-20T08:50:48;98325.72;;;20.53;86.45
66547;BME280;53400;50.364;14.874;2022-08-20T08:53:19;98315.34;;;20.81;85.03
66547;BME280;53400;50.364;14.874;2022-08-20T08:55:46;98324.47;;;20.77;84.61
66547;BME280;53400;50.364;14.874;2022-08-20T08:58:12;98327.03;;;20.91;83.96
66547;BME280;53400;50.364;14.874;2022-08-20T09:00:38;98318.56;;;20.92;83.87
66547;BME280;53400;50.364;14.874;2022-08-20T09:03:07;98313.13;;;20.92;83.27
66547;BME280;53400;50.364;14.874;2022-08-20T09:05:37;98317.28;;;20.81;84.19
66547;BME280;53400;50.364;14.874;2022-08-20T09:08:07;98319.50;;;20.88;83.56
66547;BME280;53400;50.364;14.874;2022-08-20T09:10:37;98314.88;;;20.79;83.72
66547;BME280;53400;50.364;14.874;2022-08-20T09:13:03;98307.81;;;20.87;83.49
66547;BME280;53400;50.364;14.874;2022-08-20T09:15:30;98314.25;;;20.74;84.23
66547;BME280;53400;50.364;14.874;2022-08-20T09:17:56;98314.88;;;20.79;83.49
66547;BME280;53400;50.364;14.874;2022-08-20T09:20:22;98322.56;;;20.77;83.13
66547;BME280;53400;50.364;14.874;2022-08-20T09:22:48;98322.91;;;20.76;83.87
66547;BME280;53400;50.364;14.874;2022-08-20T09:25:14;98316.00;;;20.70;84.67
66547;BME280;53400;50.364;14.874;2022-08-20T09:27:42;98316.19;;;20.82;84.16
66547;BME280;53400;50.364;14.874;2022-08-20T09:30:09;98319.06;;;20.94;83.05
66547;BME280;53400;50.364;14.874;2022-08-20T09:32:35;98313.75;;;21.06;81.69
66547;BME280;53400;50.364;14.874;2022-08-20T09:35:01;98312.63;;;21.16;81.72
66547;BME280;53400;50.364;14.874;2022-08-20T09:37:29;98324.31;;;20.91;82.07
66547;BME280;53400;50.364;14.874;2022-08-20T09:39:55;98327.53;;;20.93;82.18
66547;BME280;53400;50.364;14.874;2022-08-20T09:42:26;98322.09;;;21.01;81.57
66547;BME280;53400;50.364;14.874;2022-08-20T09:44:54;98324.00;;;20.92;81.85
66547;BME280;53400;50.364;14.874;2022-08-20T09:47:20;98325.59;;;20.84;82.61
66547;BME280;53400;50.364;14.874;2022-08-20T09:49:47;98319.03;;;21.12;81.20
66547;BME280;53400;50.364;14.874;2022-08-20T09:52:18;98331.19;;;21.05;81.41
66547;BME280;53400;50.364;14.874;2022-08-20T09:54:45;98329.91;;;21.20;80.80
66547;BME280;53400;50.364;14.874;2022-08-20T09:57:11;98327.03;;;21.08;80.78
66547;BME280;53400;50.364;14.874;2022-08-20T09:59:39;98327.53;;;20.84;81.70
66547;BME280;53400;50.364;14.874;2022-08-20T10:02:06;98331.22;;;20.88;81.85
66547;BME280;53400;50.364;14.874;2022-08-20T10:04:32;98332.47;;;20.91;81.87
66547;BME280;53400;50.364;14.874;2022-08-20T10:06:58;98332.03;;;20.97;80.81
66547;BME280;53400;50.364;14.874;2022-08-20T10:09:24;98325.31;;;21.03;80.63
66547;BME280;53400;50.364;14.874;2022-08-20T10:11:50;98333.28;;;21.08;80.52
66547;BME280;53400;50.364;14.874;2022-08-20T10:14:16;98340.81;;;21.12;80.52
66547;BME280;53400;50.364;14.874;2022-08-20T10:16:42;98331.84;;;21.02;80.50
66547;BME280;53400;50.364;14.874;2022-08-20T10:19:10;98335.06;;;20.96;80.65
66547;BME280;53400;50.364;14.874;2022-08-20T10:21:36;98336.31;;;20.81;81.37
66547;BME280;53400;50.364;14.874;2022-08-20T10:24:02;98330.56;;;20.74;82.05
66547;BME280;53400;50.364;14.874;2022-08-20T10:26:28;98347.03;;;20.69;81.92
66547;BME280;53400;50.364;14.874;2022-08-20T10:28:55;98331.03;;;20.58;82.11
66547;BME280;53400;50.364;14.874;2022-08-20T10:31:20;98342.03;;;20.53;81.87
66547;BME280;53400;50.364;14.874;2022-08-20T10:33:47;98338.63;;;20.48;82.47
66547;BME280;53400;50.364;14.874;2022-08-20T10:36:17;98353.50;;;20.42;82.77
66547;BME280;53400;50.364;14.874;2022-08-20T10:38:44;98348.09;;;20.50;81.21
66547;BME280;53400;50.364;14.874;2022-08-20T10:41:10;98355.94;;;20.43;81.49
66547;BME280;53400;50.364;14.874;2022-08-20T10:43:36;98352.03;;;20.27;82.00
66547;BME280;53400;50.364;14.874;2022-08-20T10:46:13;98354.28;;;20.25;81.86
66547;BME280;53400;50.364;14.874;2022-08-20T10:48:39;98360.72;;;20.37;81.57
66547;BME280;53400;50.364;14.874;2022-08-20T10:51:06;98355.78;;;20.48;81.08
66547;BME280;53400;50.364;14.874;2022-08-20T10:53:32;98357.13;;;20.68;80.22
66547;BME280;53400;50.364;14.874;2022-08-20T10:55:59;98352.66;;;20.64;80.46
66547;BME280;53400;50.364;14.874;2022-08-20T10:58:26;98351.38;;;20.87;79.53
66547;BME280;53400;50.364;14.874;2022-08-20T11:00:53;98358.91;;;20.90;79.23
66547;BME280;53400;50.364;14.874;2022-08-20T11:03:20;98352.69;;;21.16;78.66
66547;BME280;53400;50.364;14.874;2022-08-20T11:05:47;98355.06;;;21.26;77.65
66547;BME280;53400;50.364;14.874;2022-08-20T11:08:13;98362.94;;;21.27;76.73
66547;BME280;53400;50.364;14.874;2022-08-20T11:10:40;98369.66;;;21.13;77.65
66547;BME280;53400;50.364;14.874;2022-08-20T11:13:07;98371.75;;;21.24;77.49
66547;BME280;53400;50.364;14.874;2022-08-20T11:15:35;98369.66;;;21.21;77.47
66547;BME280;53400;50.364;14.874;2022-08-20T11:18:02;98362.94;;;21.36;77.04
66547;BME280;53400;50.364;14.874;2022-08-20T11:20:29;98366.13;;;21.47;75.75
66547;BME280;53400;50.364;14.874;2022-08-20T11:22:56;98354.75;;;21.45;76.79
66547;BME280;53400;50.364;14.874;2022-08-20T11:25:23;98365.16;;;21.51;76.80
66547;BME280;53400;50.364;14.874;2022-08-20T11:27:50;98361.00;;;21.54;76.20
66547;BME280;53400;50.364;14.874;2022-08-20T11:30:20;98349.75;;;21.64;75.13
66547;BME280;53400;50.364;14.874;2022-08-20T11:32:47;98364.03;;;21.26;76.34
66547;BME280;53400;50.364;14.874;2022-08-20T11:35:13;98363.72;;;21.19;77.02
66547;BME280;53400;50.364;14.874;2022-08-20T11:37:40;98354.91;;;21.22;77.30
66547;BME280;53400;50.364;14.874;2022-08-20T11:40:07;98361.66;;;21.16;77.82
66547;BME280;53400;50.364;14.874;2022-08-20T11:42:36;98358.13;;;21.24;76.63
66547;BME280;53400;50.364;14.874;2022-08-20T11:45:03;98362.75;;;21.50;75.05
66547;BME280;53400;50.364;14.874;2022-08-20T11:47:30;98357.81;;;21.52;75.07
66547;BME280;53400;50.364;14.874;2022-08-20T11:49:59;98357.09;;;21.72;74.34
66547;BME280;53400;50.364;14.874;2022-08-20T11:52:26;98358.75;;;21.56;73.17
66547;BME280;53400;50.364;14.874;2022-08-20T11:54:53;98357.16;;;21.46;73.47
66547;BME280;53400;50.364;14.874;2022-08-20T11:57:20;98355.53;;;21.54;72.48
66547;BME280;53400;50.364;14.874;2022-08-20T11:59:47;98366.13;;;21.64;72.21
66547;BME280;53400;50.364;14.874;2022-08-20T12:02:14;98357.81;;;21.52;72.71
66547;BME280;53400;50.364;14.874;2022-08-20T12:04:39;98353.00;;;21.49;72.51
66547;BME280;53400;50.364;14.874;2022-08-20T12:07:09;98356.19;;;21.51;72.37
66547;BME280;53400;50.364;14.874;2022-08-20T12:09:35;98362.91;;;21.62;72.03
66547;BME280;53400;50.364;14.874;2022-08-20T12:12:03;98366.94;;;21.47;71.64
66547;BME280;53400;50.364;14.874;2022-08-20T12:14:29;98362.75;;;21.24;72.65
66547;BME280;53400;50.364;14.874;2022-08-20T12:16:55;98372.06;;;21.23;73.24
66547;BME280;53400;50.364;14.874;2022-08-20T12:19:21;98366.94;;;21.39;72.88
66547;BME280;53400;50.364;14.874;2022-08-20T12:21:46;98372.22;;;21.52;72.33
66547;BME280;53400;50.364;14.874;2022-08-20T12:24:13;98377.03;;;21.56;72.04
66547;BME280;53400;50.364;14.874;2022-08-20T12:26:38;98376.06;;;21.51;71.76
66547;BME280;53400;50.364;14.874;2022-08-20T12:29:06;98371.44;;;21.43;72.16
66547;BME280;53400;50.364;14.874;2022-08-20T12:31:32;98373.31;;;21.51;70.88
66547;BME280;53400;50.364;14.874;2022-08-20T12:33:58;98376.88;;;21.43;70.98
66547;BME280;53400;50.364;14.874;2022-08-20T12:36:23;98380.22;;;21.31;71.04
66547;BME280;53400;50.364;14.874;2022-08-20T12:38:49;98389.38;;;21.18;71.74
66547;BME280;53400;50.364;14.874;2022-08-20T12:41:19;98380.22;;;21.14;71.34
66547;BME280;53400;50.364;14.874;2022-08-20T12:43:44;98382.63;;;20.98;71.31
66547;BME280;53400;50.364;14.874;2022-08-20T12:46:12;98391.09;;;20.88;71.67
66547;BME280;53400;50.364;14.874;2022-08-20T12:48:38;98387.13;;;21.03;70.91
66547;BME280;53400;50.364;14.874;2022-08-20T12:51:04;98389.00;;;21.02;71.00